M/s Straumvik — LEYJ — position and weather

sailwx.info

Track history (hours):
 
Tides and Currents Weather Stations Pressure Air Temp Water Temp Dewpoint Dewpoint Depression Visibility Wind Speed Wind Dir Waves Ship Positions

M/s Straumvik

Last reported at 2014-Sep-21 16:19 UTC. Time now 2014-Sep-22 20:17 UTC.
Position N 59°27' E 005°14'.

Length 50 m; draft 5 m.

Type: Ship. MMSI: 258260000.

Date/timePositionNaut miles runAvg speedWind from/ knotsBaromVisibWave heightAir tempDewpointWater temp
2014-Sep-21 16:19N 59°27' E 005°14'28 5.9
2014-Sep-21 11:33N 59°06' E 005°50'6 5.6
2014-Sep-21 10:33N 59°00' E 005°52'7 6.6
2014-Sep-21 09:32N 58°55' E 006°02'4 1.6
2014-Sep-21 07:15N 58°53' E 006°06'1 0.2
2014-Sep-21 00:07N 58°54' E 006°05'5 8.1
2014-Sep-20 23:33N 58°57' E 005°59'9 8.5
2014-Sep-20 22:33N 59°04' E 005°51'9 8.8
2014-Sep-20 21:33N 59°10' E 005°38'16 7.7
2014-Sep-20 19:29N 59°22' E 005°18'  
2014-Sep-14 21:32N 59°27' E 005°14'18 2.1
2014-Sep-14 13:06N 59°10' E 005°22'12 7.8
2014-Sep-14 11:34N 59°04' E 005°43'8 7.6
2014-Sep-14 10:34N 58°59' E 005°54'9 1.8
2014-Sep-14 05:30N 58°53' E 006°06'8 8.6
2014-Sep-14 04:33N 58°58' E 005°55'8 8.4
2014-Sep-14 03:33N 59°06' E 005°48'10 8.9
2014-Sep-14 02:22N 59°12' E 005°31'14 1.8
2014-Sep-13 18:34N 59°24' E 005°16'0 0.1
2014-Sep-13 17:33N 59°24' E 005°17'  
Track history (hours):
 
Tides and Currents Weather Stations Pressure Air Temp Water Temp Dewpoint Dewpoint Depression Visibility Wind Speed Wind Dir Waves Ship Positions

M/s Straumvik

Last reported at 2014-Sep-21 16:19 UTC. Time now 2014-Sep-22 20:17 UTC.
Position N 59°27' E 005°14'.

Length 50 m; draft 5 m.

Type: Ship. MMSI: 258260000.

Date/timePositionNaut miles runAvg speedWind from/ knotsBaromVisibWave heightAir tempDewpointWater temp
2014-Sep-21 16:19N 59°27' E 005°14'28 5.9
2014-Sep-21 11:33N 59°06' E 005°50'6 5.6
2014-Sep-21 10:33N 59°00' E 005°52'7 6.6
2014-Sep-21 09:32N 58°55' E 006°02'4 1.6
2014-Sep-21 07:15N 58°53' E 006°06'1 0.2
2014-Sep-21 00:07N 58°54' E 006°05'5 8.1
2014-Sep-20 23:33N 58°57' E 005°59'9 8.5
2014-Sep-20 22:33N 59°04' E 005°51'9 8.8
2014-Sep-20 21:33N 59°10' E 005°38'16 7.7
2014-Sep-20 19:29N 59°22' E 005°18'  
2014-Sep-14 21:32N 59°27' E 005°14'18 2.1
2014-Sep-14 13:06N 59°10' E 005°22'12 7.8
2014-Sep-14 11:34N 59°04' E 005°43'8 7.6
2014-Sep-14 10:34N 58°59' E 005°54'9 1.8
2014-Sep-14 05:30N 58°53' E 006°06'8 8.6
2014-Sep-14 04:33N 58°58' E 005°55'8 8.4
2014-Sep-14 03:33N 59°06' E 005°48'10 8.9
2014-Sep-14 02:22N 59°12' E 005°31'14 1.8
2014-Sep-13 18:34N 59°24' E 005°16'0 0.1
2014-Sep-13 17:33N 59°24' E 005°17'  

Dump ship's entire track history